Terminal Aerodrome Forecast
Issued by NWS

Home | Current Version | Previous Version | Text Only | Print | Product List | Glossary On
Versions: 1 2 3 4 5 6 7 8 9 10 11 12 13 14 15 16 17 18 19
000
FTUS43 KILX 141100
TAFCMI
TAF
KCMI 141127Z 1412/1512 25005KT P6SM SCT120
     FM141800 28012KT P6SM VCTS SCT040CB BKN100
     FM150000 33012KT P6SM SCT050
     FM150600 32007KT P6SM SKC=

USA.gov is the U.S. government's official web portal to all federal, state and local government web resources and services.